Time;durP1;ratioP1;P1;durP2;ratioP2;P2;SDS_P1;SDS_P2;PMS_P1;PMS_P2;Temp;Humidity;BMP_temperature;BMP_pressure;BME280_temperature;BME280_humidity;BME280_pressure;Samples;Min_cycle;Max_cycle;Signal;HPM_P1;HPM_P2
2023/05/01 00:01:43;;;;;;;8.60;6.67;;;;;;;12.47;53.57;96113.47;5030170;28;20406;-73
2023/05/01 00:04:08;;;;;;;7.83;5.50;;;;;;;12.47;53.80;96102.94;5025557;28;20200;-71
2023/05/01 00:06:33;;;;;;;7.50;6.80;;;;;;;12.41;54.19;96100.66;5022889;28;20183;-71
2023/05/01 00:08:59;;;;;;;8.63;6.23;;;;;;;12.44;53.75;96100.47;5010255;28;20344;-73
2023/05/01 00:11:24;;;;;;;6.03;5.47;;;;;;;12.40;54.21;96106.88;5013575;28;20977;-71
2023/05/01 00:13:50;;;;;;;10.07;6.20;;;;;;;12.42;53.88;96091.81;5020574;28;21001;-71
2023/05/01 00:16:16;;;;;;;6.30;5.50;;;;;;;12.40;53.85;96079.66;5026094;28;20630;-73
2023/05/01 00:18:41;;;;;;;12.60;6.37;;;;;;;12.20;54.74;96092.16;5020880;28;20188;-71
2023/05/01 00:21:07;;;;;;;8.03;5.70;;;;;;;12.31;53.99;96082.81;5029333;28;20201;-73
2023/05/01 00:23:33;;;;;;;6.70;6.00;;;;;;;12.35;53.70;96069.41;5029378;28;20199;-72
2023/05/01 00:25:58;;;;;;;11.60;5.97;;;;;;;12.36;53.15;96060.59;5029266;28;20183;-71
2023/05/01 00:28:24;;;;;;;7.67;5.77;;;;;;;12.36;54.12;96062.38;5029434;28;20263;-70
2023/05/01 00:30:50;;;;;;;6.27;5.73;;;;;;;12.16;53.91;96068.75;5029460;28;20263;-72
2023/05/01 00:33:15;;;;;;;7.07;6.37;;;;;;;12.23;53.93;96068.31;5029369;28;20179;-72
2023/05/01 00:35:45;;;;;;;6.20;5.60;;;;;;;12.32;54.13;96063.47;5029212;28;20501;-72
2023/05/01 00:38:10;;;;;;;7.47;5.80;;;;;;;12.39;54.19;96059.56;5011378;28;20621;-71
2023/05/01 00:40:45;;;;;;;13.10;5.80;;;;;;;12.34;53.75;96061.63;5024500;28;20414;-73
2023/05/01 00:43:11;;;;;;;6.40;5.80;;;;;;;12.19;54.03;96056.28;5029024;28;20258;-72
2023/05/01 00:45:38;;;;;;;10.13;6.27;;;;;;;12.15;54.72;96059.16;5028749;28;20453;-72
2023/05/01 00:48:05;;;;;;;7.67;6.53;;;;;;;12.24;54.45;96056.03;5028898;28;20415;-71
2023/05/01 00:50:31;;;;;;;6.70;6.10;;;;;;;12.20;53.99;96057.13;5027473;28;21079;-71
2023/05/01 00:52:56;;;;;;;9.00;6.27;;;;;;;12.22;53.94;96058.72;5029015;28;20472;-71
2023/05/01 00:55:22;;;;;;;5.73;5.23;;;;;;;12.19;54.07;96051.03;5028724;28;20430;-73
2023/05/01 00:57:49;;;;;;;6.67;6.07;;;;;;;12.19;54.30;96047.53;5028357;28;20174;-72
2023/05/01 01:00:15;;;;;;;11.17;6.77;;;;;;;12.29;53.90;96049.56;5028577;28;20553;-72
2023/05/01 01:02:41;;;;;;;6.60;6.00;;;;;;;12.30;53.93;96042.50;5028439;28;20422;-72
2023/05/01 01:05:06;;;;;;;7.03;6.33;;;;;;;12.28;53.86;96047.00;5028467;28;21020;-73
2023/05/01 01:07:32;;;;;;;12.23;6.53;;;;;;;12.31;54.01;96045.97;5028289;28;20237;-71
2023/05/01 01:10:29;;;;;;;6.37;5.77;;;;;;;12.32;54.27;96039.81;5028271;28;20190;-69
2023/05/01 01:13:11;;;;;;;6.30;5.80;;;;;;;12.22;53.99;96040.31;5026514;28;20176;-71
2023/05/01 01:15:47;;;;;;;6.20;5.60;;;;;;;12.20;54.09;96033.44;5010914;28;20407;-72
2023/05/01 01:18:23;;;;;;;7.00;6.40;;;;;;;12.22;54.09;96036.84;5013896;28;20414;-72
2023/05/01 01:20:51;;;;;;;7.27;6.67;;;;;;;12.11;54.26;96026.06;5013358;28;20415;-71
2023/05/01 01:23:29;;;;;;;9.07;6.57;;;;;;;12.21;54.30;96029.88;5013958;28;21096;-71
2023/05/01 01:26:08;;;;;;;6.27;5.67;;;;;;;12.27;54.17;96027.75;5014027;28;20418;-71
2023/05/01 01:28:59;;;;;;;7.53;6.10;;;;;;;12.04;54.91;96031.66;5012486;28;20404;-72
2023/05/01 01:31:27;;;;;;;6.50;5.73;;;;;;;11.93;55.91;96035.81;5013041;28;20407;-70
2023/05/01 01:34:00;;;;;;;9.03;6.17;;;;;;;11.95;54.64;96021.69;5012088;28;20439;-70
2023/05/01 01:36:37;;;;;;;10.93;6.97;;;;;;;11.95;55.51;96031.31;5008200;28;20414;-72
2023/05/01 01:39:27;;;;;;;8.23;7.43;;;;;;;12.11;55.51;96028.69;5011453;28;21185;-71
2023/05/01 01:41:56;;;;;;;7.60;6.80;;;;;;;12.21;54.41;96019.34;5028147;28;20406;-71
2023/05/01 01:44:33;;;;;;;7.03;5.53;;;;;;;12.08;54.93;96020.03;5027758;28;20462;-72
2023/05/01 01:47:02;;;;;;;6.27;5.73;;;;;;;12.08;54.84;96017.41;5027712;28;20479;-70
2023/05/01 01:49:30;;;;;;;7.30;6.70;;;;;;;11.98;55.56;96012.78;5027705;28;20411;-70
2023/05/01 01:51:57;;;;;;;6.00;5.50;;;;;;;11.90;55.19;96015.81;5027832;28;20502;-74
2023/05/01 01:54:30;;;;;;;6.70;6.00;;;;;;;11.81;55.08;96008.38;5027691;28;20465;-72
2023/05/01 01:56:58;;;;;;;7.73;6.77;;;;;;;11.98;55.21;96010.97;5027304;28;20434;-72
2023/05/01 01:59:25;;;;;;;7.23;6.63;;;;;;;11.72;55.49;96022.06;5027718;28;20414;-72
2023/05/01 02:01:55;;;;;;;8.07;6.17;;;;;;;11.85;54.83;96016.03;5027541;28;21202;-71
2023/05/01 02:04:21;;;;;;;7.13;6.10;;;;;;;11.89;54.97;96008.84;5027539;28;20466;-72
2023/05/01 02:06:48;;;;;;;6.23;5.63;;;;;;;11.90;54.77;96012.34;5027081;28;20598;-72
2023/05/01 02:09:18;;;;;;;6.73;6.03;;;;;;;11.59;55.29;96011.34;5027418;28;20819;-72
2023/05/01 02:11:45;;;;;;;10.10;6.87;;;;;;;11.68;55.63;96004.75;5027384;28;20414;-72
2023/05/01 02:14:12;;;;;;;7.57;6.87;;;;;;;11.45;56.09;95998.94;5013822;28;20518;-73
2023/05/01 02:16:39;;;;;;;8.77;6.40;;;;;;;11.58;55.49;95991.28;5005863;28;20426;-72
2023/05/01 02:19:05;;;;;;;7.37;6.63;;;;;;;11.57;55.83;95992.19;5007606;28;20969;-72
2023/05/01 02:21:33;;;;;;;7.37;5.53;;;;;;;11.64;55.36;95999.63;5007177;28;20438;-71
2023/05/01 02:24:05;;;;;;;7.07;6.37;;;;;;;11.68;54.83;95994.25;5021810;28;20462;-71
2023/05/01 02:26:37;;;;;;;7.13;6.53;;;;;;;11.55;55.39;95997.53;5012800;28;20447;-73
2023/05/01 02:29:06;;;;;;;6.03;5.50;;;;;;;11.45;55.51;95991.06;5009505;28;20438;-74
2023/05/01 02:31:31;;;;;;;7.33;6.07;;;;;;;11.17;56.80;95992.56;5021254;28;20469;-71
2023/05/01 02:33:57;;;;;;;7.33;6.63;;;;;;;11.09;56.66;95993.88;5028321;28;20434;-72
2023/05/01 02:36:22;;;;;;;6.70;6.10;;;;;;;11.17;56.69;95989.06;5027576;28;20174;-72
2023/05/01 02:38:49;;;;;;;7.20;6.17;;;;;;;11.10;57.02;95998.19;5026462;28;20647;-70
2023/05/01 02:41:16;;;;;;;9.17;6.10;;;;;;;10.92;57.42;95981.63;5007672;28;20660;-71
2023/05/01 02:43:44;;;;;;;7.60;6.90;;;;;;;11.00;57.81;95979.44;5007315;28;20458;-72
2023/05/01 02:46:12;;;;;;;6.40;5.80;;;;;;;10.80;57.79;95985.75;5007018;28;20415;-71
2023/05/01 02:48:38;;;;;;;9.30;6.63;;;;;;;11.01;57.53;95981.16;5010029;28;20537;-70
2023/05/01 02:51:06;;;;;;;8.30;6.63;;;;;;;11.09;57.16;95981.59;5027587;28;20410;-71
2023/05/01 02:53:32;;;;;;;7.23;6.53;;;;;;;11.18;57.14;95981.09;5027682;28;20568;-71
2023/05/01 02:55:58;;;;;;;7.27;6.67;;;;;;;10.94;57.84;95974.53;5027332;28;20410;-70
2023/05/01 02:58:23;;;;;;;6.90;6.23;;;;;;;10.95;57.50;95977.06;5027798;28;20429;-72
2023/05/01 03:00:49;;;;;;;7.70;6.77;;;;;;;10.93;57.68;95973.66;5027282;28;20172;-71
2023/05/01 03:03:15;;;;;;;7.70;7.00;;;;;;;11.10;57.09;95971.94;5027028;28;20225;-71
2023/05/01 03:05:41;;;;;;;7.40;6.70;;;;;;;11.12;57.30;95975.31;5026919;28;20314;-72
2023/05/01 03:08:06;;;;;;;11.00;6.60;;;;;;;11.20;56.96;95968.75;5026636;28;20509;-69
2023/05/01 03:10:32;;;;;;;7.47;6.63;;;;;;;11.28;56.44;95975.38;5026889;28;20183;-71
2023/05/01 03:12:58;;;;;;;7.30;6.67;;;;;;;11.25;56.56;95972.91;5026783;28;20233;-70
2023/05/01 03:15:23;;;;;;;7.40;6.70;;;;;;;10.99;57.27;95964.63;5027015;28;20411;-71
2023/05/01 03:17:49;;;;;;;7.50;6.90;;;;;;;10.94;57.80;95977.16;5026584;28;20180;-72
2023/05/01 03:20:14;;;;;;;7.57;6.80;;;;;;;11.04;57.28;95961.78;5026745;28;20186;-71
2023/05/01 03:22:40;;;;;;;7.80;7.10;;;;;;;10.84;57.73;95957.53;5026819;28;20198;-71
2023/05/01 03:25:07;;;;;;;6.80;6.20;;;;;;;10.77;58.16;95968.38;5017488;28;20703;-72
2023/05/01 03:27:32;;;;;;;8.33;6.00;;;;;;;10.71;58.08;95960.81;5026189;28;20229;-71
2023/05/01 03:29:57;;;;;;;7.77;7.10;;;;;;;10.68;58.54;95949.63;5026771;28;20807;-72
2023/05/01 03:32:23;;;;;;;10.67;6.63;;;;;;;10.93;57.63;95959.69;5028680;28;20591;-71
2023/05/01 03:34:48;;;;;;;6.90;6.20;;;;;;;10.69;58.48;95953.94;5028596;28;20187;-74
2023/05/01 03:37:14;;;;;;;7.70;7.00;;;;;;;10.71;58.52;95955.56;5029538;28;20255;-72
2023/05/01 03:39:40;;;;;;;8.53;7.73;;;;;;;10.69;58.84;95949.53;5030017;28;20617;-71
2023/05/01 03:42:05;;;;;;;6.87;6.27;;;;;;;10.56;59.21;95946.72;5030403;28;20267;-72
2023/05/01 03:44:31;;;;;;;7.93;6.47;;;;;;;10.50;59.68;95946.16;5029939;28;20560;-71
2023/05/01 03:46:57;;;;;;;7.93;7.10;;;;;;;10.51;59.40;95951.34;5030003;28;20191;-72
2023/05/01 03:49:22;;;;;;;9.83;6.70;;;;;;;10.62;59.21;95947.31;5030247;28;20175;-71
2023/05/01 03:51:48;;;;;;;6.90;6.30;;;;;;;10.48;59.22;95950.63;5028537;28;20179;-72
2023/05/01 03:54:13;;;;;;;7.80;6.70;;;;;;;10.58;58.94;95946.59;5030026;28;20184;-73
2023/05/01 03:56:39;;;;;;;16.00;9.27;;;;;;;10.46;59.49;95940.22;5029628;28;20176;-73
2023/05/01 03:59:04;;;;;;;7.30;6.47;;;;;;;10.71;58.99;95945.06;5030210;28;20177;-73
2023/05/01 04:01:32;;;;;;;8.40;6.80;;;;;;;10.85;58.34;95946.97;5029971;28;20295;-73
2023/05/01 04:03:58;;;;;;;10.30;7.23;;;;;;;10.95;57.69;95948.19;5029796;28;20206;-72
2023/05/01 04:06:24;;;;;;;9.03;6.97;;;;;;;10.72;58.97;95949.38;5028085;28;20426;-71
2023/05/01 04:08:49;;;;;;;7.37;6.67;;;;;;;10.98;57.84;95952.41;5030171;28;20537;-72
2023/05/01 04:11:15;;;;;;;6.73;6.13;;;;;;;10.94;57.72;95948.28;5029878;28;20518;-71
2023/05/01 04:13:40;;;;;;;7.33;6.27;;;;;;;10.84;58.42;95952.28;5029787;28;20199;-71
2023/05/01 04:16:06;;;;;;;7.10;6.50;;;;;;;10.81;58.29;95953.31;5029525;28;20286;-71
2023/05/01 04:18:31;;;;;;;7.10;6.50;;;;;;;10.73;58.77;95952.88;5030335;28;20171;-72
2023/05/01 04:20:57;;;;;;;11.87;6.90;;;;;;;11.06;58.03;95952.88;5030024;28;20167;-70
2023/05/01 04:23:22;;;;;;;6.40;5.80;;;;;;;10.88;57.72;95946.81;5029712;28;20203;-71
2023/05/01 04:25:48;;;;;;;8.33;7.37;;;;;;;10.85;58.58;95949.59;5021586;28;20208;-72
2023/05/01 04:28:13;;;;;;;6.87;6.27;;;;;;;10.90;59.42;95955.47;5009986;28;20176;-72
2023/05/01 04:30:39;;;;;;;7.23;6.60;;;;;;;10.89;59.82;95952.91;5026585;28;20182;-72
2023/05/01 04:33:10;;;;;;;7.57;6.87;;;;;;;10.76;60.03;95956.16;5020208;28;20176;-73
2023/05/01 04:35:37;;;;;;;8.77;7.60;;;;;;;10.65;61.19;95960.28;5019577;28;20171;-72
2023/05/01 04:38:03;;;;;;;10.27;7.60;;;;;;;10.83;60.41;95959.31;5021260;28;20435;-71
2023/05/01 04:40:28;;;;;;;7.67;6.80;;;;;;;10.46;60.72;95966.44;5025002;28;20426;-70
2023/05/01 04:42:54;;;;;;;14.90;8.40;;;;;;;10.65;60.75;95968.16;5030477;28;20175;-71
2023/05/01 04:45:19;;;;;;;8.03;7.20;;;;;;;10.58;61.22;95975.47;5029362;28;20273;-71
2023/05/01 04:47:44;;;;;;;10.17;7.57;;;;;;;10.83;60.56;95972.44;5028733;28;20171;-71
2023/05/01 04:50:10;;;;;;;7.40;6.70;;;;;;;10.99;60.12;95970.72;5027546;28;20271;-72
2023/05/01 04:52:36;;;;;;;7.23;6.43;;;;;;;10.29;62.74;95975.16;5028831;28;20276;-71
2023/05/01 04:55:02;;;;;;;7.97;7.17;;;;;;;10.29;62.57;95969.91;5029259;28;20539;-72
2023/05/01 04:57:28;;;;;;;7.93;7.07;;;;;;;10.28;62.72;95977.84;5024009;28;20176;-71
2023/05/01 04:59:54;;;;;;;7.27;6.57;;;;;;;10.43;62.46;95976.25;5009023;28;20461;-71
2023/05/01 05:02:19;;;;;;;8.60;7.80;;;;;;;10.29;63.57;95969.06;5020855;28;20578;-70
2023/05/01 05:04:45;;;;;;;8.27;7.40;;;;;;;10.28;63.79;95975.22;5016613;28;20204;-71
2023/05/01 05:07:10;;;;;;;7.77;6.97;;;;;;;10.27;64.16;95976.97;5027846;28;20257;-73
2023/05/01 05:09:36;;;;;;;7.93;7.13;;;;;;;10.10;64.95;95969.09;5024300;28;20180;-70
2023/05/01 05:12:03;;;;;;;9.47;7.80;;;;;;;10.14;65.35;95974.13;5017744;28;20606;-70
2023/05/01 05:14:29;;;;;;;7.83;7.10;;;;;;;9.87;65.78;95975.44;5016851;28;20207;-70
2023/05/01 05:16:55;;;;;;;9.10;8.20;;;;;;;9.98;65.39;95981.03;5016189;28;20434;-71
2023/05/01 05:19:20;;;;;;;8.13;7.20;;;;;;;10.05;66.26;95979.81;5010970;28;20182;-71
2023/05/01 05:21:46;;;;;;;7.50;6.80;;;;;;;9.99;65.74;95982.72;5027990;28;20176;-70
2023/05/01 05:24:12;;;;;;;10.77;8.57;;;;;;;9.92;66.44;95984.81;5016553;28;20922;-71
2023/05/01 05:26:38;;;;;;;10.13;8.10;;;;;;;10.01;66.96;95982.66;5026564;28;20438;-70
2023/05/01 05:29:03;;;;;;;9.03;8.10;;;;;;;10.26;66.93;95980.53;5028055;28;20802;-70
2023/05/01 05:31:28;;;;;;;9.10;8.27;;;;;;;10.20;67.06;95980.81;5028655;28;20176;-71
2023/05/01 05:33:54;;;;;;;9.30;7.87;;;;;;;9.81;67.23;95986.25;5027798;28;20230;-70
2023/05/01 05:36:20;;;;;;;13.00;8.90;;;;;;;9.68;68.59;95991.19;5028540;28;20195;-72
2023/05/01 05:38:45;;;;;;;10.43;8.03;;;;;;;9.89;68.55;95981.47;5027294;28;20278;-72
2023/05/01 05:41:11;;;;;;;9.87;8.87;;;;;;;9.70;68.42;95991.97;5029199;28;20183;-70
2023/05/01 05:43:36;;;;;;;9.77;8.77;;;;;;;9.61;69.90;95990.63;5028870;28;20191;-71
2023/05/01 05:46:02;;;;;;;9.50;8.70;;;;;;;9.75;69.13;95989.97;5028793;28;20207;-72
2023/05/01 05:48:27;;;;;;;10.30;8.70;;;;;;;9.76;68.71;95991.69;5020247;28;20179;-72
2023/05/01 05:50:53;;;;;;;10.23;9.20;;;;;;;9.49;69.50;95988.59;5020831;28;20168;-70
2023/05/01 05:53:19;;;;;;;10.20;9.20;;;;;;;9.51;69.20;95998.06;5018611;28;20171;-72
2023/05/01 05:55:48;;;;;;;11.97;8.97;;;;;;;9.64;69.40;95993.13;5030009;28;20172;-71
2023/05/01 05:58:18;;;;;;;10.27;9.10;;;;;;;9.80;68.74;95987.16;5022690;28;20427;-71
2023/05/01 06:00:52;;;;;;;16.57;9.90;;;;;;;9.92;69.50;95983.94;5022233;28;20803;-69
2023/05/01 06:03:18;;;;;;;12.10;8.00;;;;;;;10.12;68.23;95988.22;5029689;28;20429;-71
2023/05/01 06:05:44;;;;;;;11.43;9.40;;;;;;;10.28;69.18;95978.72;5034114;28;20457;-71
2023/05/01 06:08:10;;;;;;;9.23;8.33;;;;;;;10.15;69.14;95978.44;5019220;28;20452;-71
2023/05/01 06:10:38;;;;;;;9.77;8.77;;;;;;;10.20;67.72;95979.97;5016360;28;20445;-70
2023/05/01 06:13:07;;;;;;;9.93;8.93;;;;;;;10.24;68.51;95981.53;5016933;28;20463;-71
2023/05/01 06:15:32;;;;;;;9.00;8.10;;;;;;;10.32;66.95;95979.41;5017231;28;20487;-72
2023/05/01 06:17:58;;;;;;;8.20;7.50;;;;;;;10.40;67.58;95976.44;5017524;28;20429;-71
2023/05/01 06:20:23;;;;;;;10.13;9.03;;;;;;;10.30;68.63;95978.63;5022192;28;20262;-71
2023/05/01 06:22:48;;;;;;;9.30;8.40;;;;;;;10.22;68.58;95978.97;5027766;28;20562;-71
2023/05/01 06:25:14;;;;;;;11.00;8.80;;;;;;;10.48;67.35;95972.47;5027948;28;20194;-71
2023/05/01 06:27:39;;;;;;;8.63;7.83;;;;;;;10.80;65.74;95975.25;5026449;28;20171;-71
2023/05/01 06:30:06;;;;;;;9.47;8.57;;;;;;;10.60;66.56;95974.47;5027770;28;20271;-71
2023/05/01 06:32:31;;;;;;;9.70;8.77;;;;;;;10.38;67.29;95974.72;5027757;28;20172;-72
2023/05/01 06:34:56;;;;;;;9.73;8.43;;;;;;;10.04;68.36;95983.38;5027818;28;20777;-71
2023/05/01 06:37:22;;;;;;;10.13;8.97;;;;;;;10.33;67.85;95981.13;5025799;28;20203;-73
2023/05/01 06:39:47;;;;;;;13.63;8.83;;;;;;;10.29;67.84;95984.81;5008252;28;20172;-71
2023/05/01 06:42:15;;;;;;;13.37;9.53;;;;;;;10.46;67.81;95982.19;5011165;28;20175;-71
2023/05/01 06:44:41;;;;;;;17.43;9.20;;;;;;;10.70;66.66;95979.25;5007935;28;20188;-70
2023/05/01 06:47:06;;;;;;;9.07;8.27;;;;;;;10.23;68.41;95985.94;5007629;28;20423;-71
2023/05/01 06:49:32;;;;;;;11.20;8.90;;;;;;;10.69;66.83;95980.19;5007974;28;20947;-71
2023/05/01 06:51:58;;;;;;;12.70;9.60;;;;;;;10.70;66.55;95981.88;5007939;28;20175;-71
2023/05/01 06:54:25;;;;;;;9.00;8.10;;;;;;;10.67;67.22;95985.50;5007887;28;21043;-71
2023/05/01 06:56:51;;;;;;;9.50;8.47;;;;;;;10.70;66.71;95984.50;5007446;28;20182;-73
2023/05/01 06:59:16;;;;;;;9.50;8.70;;;;;;;10.75;65.69;95993.00;5025729;28;20445;-71
2023/05/01 07:01:42;;;;;;;8.20;7.40;;;;;;;11.03;65.25;95992.41;5027391;28;20774;-73
2023/05/01 07:04:07;;;;;;;8.63;7.93;;;;;;;11.09;65.33;95988.63;5023156;28;20207;-73
2023/05/01 07:06:33;;;;;;;10.63;8.40;;;;;;;11.15;64.26;95991.78;5024428;28;20171;-72
2023/05/01 07:08:59;;;;;;;9.10;8.20;;;;;;;11.29;64.17;95993.69;5030015;28;20653;-73
2023/05/01 07:11:25;;;;;;;9.70;8.80;;;;;;;10.96;65.38;95997.16;5039234;28;20472;-72
2023/05/01 07:13:51;;;;;;;9.40;8.50;;;;;;;11.11;65.18;95992.03;5031097;28;20269;-70
2023/05/01 07:16:17;;;;;;;17.07;8.10;;;;;;;11.53;68.51;95988.03;5021710;28;20559;-70
2023/05/01 07:18:42;;;;;;;11.93;8.13;;;;;;;11.77;65.07;95993.75;5031219;28;20930;-70
2023/05/01 07:21:10;;;;;;;15.80;8.43;;;;;;;11.45;64.69;95991.91;5029065;28;20182;-69
2023/05/01 07:23:36;;;;;;;11.73;8.30;;;;;;;11.49;63.62;95997.88;5018592;28;20204;-70
2023/05/01 07:26:02;;;;;;;9.83;8.90;;;;;;;11.54;63.34;95993.19;5016083;28;20446;-71
2023/05/01 07:28:27;;;;;;;10.00;9.10;;;;;;;11.19;64.59;95993.28;5019390;28;20470;-70
2023/05/01 07:30:53;;;;;;;9.87;8.93;;;;;;;10.98;65.12;95999.69;5019011;28;20172;-71
2023/05/01 07:33:18;;;;;;;9.37;8.47;;;;;;;11.28;64.05;95988.50;5020619;28;20656;-70
2023/05/01 07:35:43;;;;;;;10.10;9.10;;;;;;;11.17;64.81;95991.69;5019531;28;20184;-70
2023/05/01 07:38:09;;;;;;;8.80;8.00;;;;;;;10.75;65.79;95985.13;5030865;28;20225;-70
2023/05/01 07:40:35;;;;;;;9.90;9.10;;;;;;;10.88;65.42;95994.06;5022130;28;20176;-69
2023/05/01 07:43:01;;;;;;;11.27;9.50;;;;;;;11.00;65.28;95990.78;5012123;28;20188;-69
2023/05/01 07:45:26;;;;;;;13.33;9.00;;;;;;;11.33;64.16;95989.94;5023137;28;20536;-69
2023/05/01 07:47:52;;;;;;;9.20;8.00;;;;;;;11.12;64.30;95991.94;5015241;28;20657;-69
2023/05/01 07:50:17;;;;;;;10.47;8.20;;;;;;;10.92;64.50;95990.34;5018414;28;20194;-69
2023/05/01 07:52:43;;;;;;;11.53;9.00;;;;;;;11.15;64.55;95999.66;5012282;28;20230;-69
2023/05/01 07:55:09;;;;;;;9.27;8.37;;;;;;;11.17;63.97;95997.81;5018537;28;20192;-70
2023/05/01 07:57:35;;;;;;;8.40;7.73;;;;;;;11.17;64.19;95999.56;5010600;28;20172;-69
2023/05/01 08:00:00;;;;;;;9.10;8.20;;;;;;;11.12;64.23;95999.81;5018973;28;20546;-69
2023/05/01 08:02:26;;;;;;;9.90;9.00;;;;;;;11.16;63.31;95996.09;5026122;28;20503;-68
2023/05/01 08:04:51;;;;;;;8.67;7.77;;;;;;;11.09;64.61;95989.47;5040416;28;20211;-69
2023/05/01 08:07:17;;;;;;;9.23;8.33;;;;;;;11.27;63.15;95999.91;5025835;28;20187;-69
2023/05/01 08:09:42;;;;;;;10.93;8.33;;;;;;;11.56;62.60;95996.59;5021955;28;20262;-73
2023/05/01 08:12:08;;;;;;;10.67;9.57;;;;;;;11.70;61.39;95997.63;5029445;28;20652;-70
2023/05/01 08:14:33;;;;;;;9.37;8.50;;;;;;;11.84;61.25;95995.94;5029411;28;20199;-70
2023/05/01 08:16:59;;;;;;;10.50;8.70;;;;;;;11.92;60.57;95995.53;5029825;28;20262;-69
2023/05/01 08:19:25;;;;;;;13.03;8.20;;;;;;;11.68;61.47;96000.34;5024526;28;20195;-69
2023/05/01 08:21:51;;;;;;;8.67;7.87;;;;;;;11.88;62.11;96008.94;5028496;28;20175;-70
2023/05/01 08:24:17;;;;;;;17.57;9.20;;;;;;;11.90;60.84;95997.41;5035818;28;20578;-71
2023/05/01 08:26:42;;;;;;;9.90;8.90;;;;;;;11.89;61.01;96003.59;5026794;28;20213;-69
2023/05/01 08:29:09;;;;;;;11.57;9.00;;;;;;;11.84;61.30;96006.44;5022871;28;20645;-70
2023/05/01 08:31:36;;;;;;;14.00;9.57;;;;;;;11.95;62.03;96005.91;5028886;28;20175;-70
2023/05/01 08:34:02;;;;;;;10.63;9.63;;;;;;;11.97;60.66;96004.00;5028537;28;20430;-69
2023/05/01 08:36:27;;;;;;;12.23;9.97;;;;;;;12.06;60.38;96000.88;5028532;28;20416;-70
2023/05/01 08:38:53;;;;;;;10.23;9.10;;;;;;;11.98;61.05;96004.88;5025706;28;20259;-70
2023/05/01 08:41:20;;;;;;;14.57;10.23;;;;;;;11.98;61.77;96002.25;5008227;28;20186;-71
2023/05/01 08:43:47;;;;;;;16.33;9.80;;;;;;;12.28;60.41;95995.25;5012776;28;20203;-70
2023/05/01 08:46:20;;;;;;;13.93;9.80;;;;;;;12.11;61.04;96010.28;5018003;28;21057;-70
2023/05/01 08:48:47;;;;;;;8.80;8.10;;;;;;;12.19;61.06;96000.16;5020331;28;22345;-71
2023/05/01 08:51:16;;;;;;;11.83;9.70;;;;;;;11.97;61.66;96004.00;5015273;28;20501;-72
2023/05/01 08:53:43;;;;;;;15.43;10.57;;;;;;;11.61;61.91;96006.84;5012890;28;20458;-70
2023/05/01 08:56:12;;;;;;;10.73;9.83;;;;;;;11.59;62.73;96009.56;5012225;28;21018;-73
2023/05/01 08:58:39;;;;;;;11.10;9.90;;;;;;;11.53;62.94;96002.03;5011876;28;20799;-70
2023/05/01 09:01:07;;;;;;;11.40;10.40;;;;;;;11.89;61.46;96008.03;5015446;28;20439;-69
2023/05/01 09:03:33;;;;;;;12.60;11.23;;;;;;;12.17;60.75;96004.69;5020096;28;20548;-70
2023/05/01 09:06:01;;;;;;;12.87;11.13;;;;;;;12.27;60.24;95997.97;5008696;28;20516;-69
2023/05/01 09:08:26;;;;;;;10.60;9.70;;;;;;;12.29;60.79;96004.00;5012827;28;20935;-70
2023/05/01 09:10:54;;;;;;;12.50;11.20;;;;;;;12.42;60.63;96006.75;5016673;28;20442;-69
2023/05/01 09:13:19;;;;;;;12.17;11.07;;;;;;;12.64;60.12;96003.75;5015787;28;20648;-70
2023/05/01 09:15:45;;;;;;;13.13;10.30;;;;;;;12.45;60.23;96007.44;5015982;28;20543;-70
2023/05/01 09:18:11;;;;;;;10.17;9.17;;;;;;;12.25;61.48;95999.84;5018641;28;20708;-69
2023/05/01 09:20:37;;;;;;;12.77;10.57;;;;;;;12.37;60.43;96008.81;5027529;28;20195;-70
2023/05/01 09:23:02;;;;;;;13.10;10.00;;;;;;;12.60;59.81;95999.59;5026073;28;20462;-70
2023/05/01 09:25:28;;;;;;;13.20;9.80;;;;;;;12.65;59.47;96003.63;5016249;28;20564;-69
2023/05/01 09:27:56;;;;;;;14.37;11.13;;;;;;;12.63;59.33;95992.34;5009312;28;20187;-70
2023/05/01 09:30:30;;;;;;;11.47;9.20;;;;;;;12.84;58.88;96002.56;5013437;28;20183;-69
2023/05/01 09:33:05;;;;;;;10.40;9.50;;;;;;;12.89;59.36;96003.13;5015400;28;21024;-69
2023/05/01 09:35:31;;;;;;;11.50;10.20;;;;;;;12.80;59.36;96011.56;5014439;28;20438;-70
2023/05/01 09:37:57;;;;;;;11.60;10.50;;;;;;;12.62;60.05;96003.00;5018928;28;20438;-71
2023/05/01 09:40:26;;;;;;;11.70;10.50;;;;;;;12.58;60.35;96004.09;5017094;28;20986;-68
2023/05/01 09:42:54;;;;;;;12.53;10.50;;;;;;;12.28;61.72;96010.16;5015933;28;20192;-66
2023/05/01 09:45:22;;;;;;;53.00;12.47;;;;;;;12.64;60.28;95996.69;5008999;28;20563;-69
2023/05/01 09:47:47;;;;;;;11.60;10.40;;;;;;;12.68;60.26;96005.25;5015306;28;20509;-69
2023/05/01 09:50:33;;;;;;;12.87;10.73;;;;;;;12.56;60.46;96005.97;5026798;28;21013;-68
2023/05/01 09:53:03;;;;;;;11.67;10.50;;;;;;;13.03;59.09;95999.69;5028320;28;20187;-68
2023/05/01 09:55:30;;;;;;;13.33;10.00;;;;;;;12.98;58.56;95999.13;5009347;28;20852;-68
2023/05/01 09:57:57;;;;;;;11.47;10.27;;;;;;;13.20;58.77;95998.66;5019469;28;20920;-68
2023/05/01 10:00:24;;;;;;;10.50;9.50;;;;;;;13.26;58.71;95993.03;5017343;28;20437;-67
2023/05/01 10:02:50;;;;;;;13.00;10.80;;;;;;;13.40;58.22;95994.84;5013661;28;20427;-67
2023/05/01 10:05:16;;;;;;;13.40;10.07;;;;;;;13.49;57.30;95991.66;5020727;28;20458;-69
2023/05/01 10:08:01;;;;;;;9.80;8.90;;;;;;;13.67;57.64;95995.75;5005359;28;20451;-69
2023/05/01 10:10:26;;;;;;;10.73;9.60;;;;;;;13.65;56.68;95995.00;5019437;28;20481;-68
2023/05/01 10:12:52;;;;;;;12.83;10.33;;;;;;;13.81;56.75;95994.03;5011137;28;20418;-68
2023/05/01 10:15:19;;;;;;;15.30;10.10;;;;;;;14.06;63.41;95991.53;5013422;28;20215;-69
2023/05/01 10:17:44;;;;;;;19.33;9.40;;;;;;;15.23;66.02;95986.44;5013724;28;20595;-69
2023/05/01 10:20:11;;;;;;;12.50;9.23;;;;;;;14.94;55.25;95983.16;5009604;28;20458;-67
2023/05/01 10:22:37;;;;;;;10.77;9.87;;;;;;;14.79;54.74;95980.59;5012612;28;20188;-68
2023/05/01 10:25:06;;;;;;;10.80;9.80;;;;;;;14.99;53.23;95979.25;5010258;28;20477;-67
2023/05/01 10:27:33;;;;;;;17.30;10.70;;;;;;;14.55;54.16;95979.59;5015239;28;20862;-68
2023/05/01 10:30:03;;;;;;;11.50;9.47;;;;;;;14.54;54.82;95985.84;5016429;28;20546;-67
2023/05/01 10:32:31;;;;;;;22.67;12.10;;;;;;;14.29;54.81;95989.19;5023156;28;20434;-69
2023/05/01 10:35:02;;;;;;;15.83;11.70;;;;;;;14.13;55.29;95990.19;5028635;28;20429;-69
2023/05/01 10:37:37;;;;;;;10.90;9.90;;;;;;;14.26;55.40;95986.75;5028266;28;20410;-69
2023/05/01 10:40:40;;;;;;;10.90;9.77;;;;;;;14.53;55.35;95981.47;5027521;28;20441;-68
2023/05/01 10:43:14;;;;;;;11.27;10.17;;;;;;;14.57;54.95;95977.69;5032270;28;20522;-69
2023/05/01 10:45:40;;;;;;;13.53;10.00;;;;;;;14.94;53.60;95976.06;5032542;28;20857;-69
2023/05/01 10:48:06;;;;;;;10.90;9.90;;;;;;;15.12;52.82;95973.97;5032661;28;20628;-69
2023/05/01 10:50:33;;;;;;;12.23;10.10;;;;;;;15.22;52.16;95975.03;5031537;28;20176;-69
2023/05/01 10:53:10;;;;;;;12.03;10.93;;;;;;;15.06;52.96;95969.09;5030485;28;20179;-69
2023/05/01 10:55:38;;;;;;;10.83;9.90;;;;;;;15.12;53.03;95973.09;5025775;28;20428;-68
2023/05/01 10:58:04;;;;;;;12.30;10.97;;;;;;;15.09;52.80;95975.97;5023149;28;20516;-69
2023/05/01 11:00:31;;;;;;;12.40;9.70;;;;;;;15.28;52.25;95965.81;5014987;28;20831;-67
2023/05/01 11:03:21;;;;;;;12.50;10.30;;;;;;;15.48;51.89;95961.78;5010504;28;20203;-69
2023/05/01 11:05:59;;;;;;;18.83;10.43;;;;;;;15.80;51.02;95951.59;5030095;28;20454;-69
2023/05/01 11:08:38;;;;;;;11.33;9.90;;;;;;;15.96;50.51;95947.84;5030408;28;20484;-68
2023/05/01 11:11:18;;;;;;;10.60;9.50;;;;;;;16.22;50.30;95949.41;5030070;28;20414;-68
2023/05/01 11:13:59;;;;;;;11.77;10.77;;;;;;;15.98;51.04;95938.81;5012780;28;20439;-69
2023/05/01 11:16:37;;;;;;;11.07;9.87;;;;;;;16.26;50.31;95939.44;5026756;28;20433;-68
2023/05/01 11:19:09;;;;;;;18.13;11.10;;;;;;;16.20;50.29;95938.09;5018674;28;20893;-69
2023/05/01 11:21:37;;;;;;;14.57;11.00;;;;;;;16.47;49.84;95932.56;5020266;28;20920;-67
2023/05/01 11:24:03;;;;;;;11.10;9.90;;;;;;;16.47;50.20;95935.22;5027976;28;20450;-68
2023/05/01 11:26:29;;;;;;;13.63;10.63;;;;;;;16.84;48.97;95940.41;5010351;28;20430;-67
2023/05/01 11:28:57;;;;;;;12.10;11.00;;;;;;;16.58;49.44;95930.91;5006126;28;20533;-69
2023/05/01 11:31:25;;;;;;;19.83;11.17;;;;;;;16.41;50.25;95932.16;5007980;28;20419;-68